Time;durP1;ratioP1;P1;durP2;ratioP2;P2;SDS_P1;SDS_P2;PMS_P1;PMS_P2;Temp;Humidity;BMP_temperature;BMP_pressure;BME280_temperature;BME280_humidity;BME280_pressure;Samples;Min_cycle;Max_cycle;Signal;HPM_P1;HPM_P2
2023/05/29 00:01:23;;;;;;;13.32;1.73;;;11.90;99.90;;;;;;5090670;28;20119;-71
2023/05/29 00:03:52;;;;;;;18.40;2.97;;;11.90;99.90;;;;;;5086542;28;20042;-72
2023/05/29 00:06:26;;;;;;;11.10;1.30;;;11.90;99.90;;;;;;5083076;28;20043;-71
2023/05/29 00:08:52;;;;;;;13.40;1.67;;;11.80;99.90;;;;;;5091220;28;20032;-71
2023/05/29 00:11:17;;;;;;;9.68;2.05;;;11.80;99.90;;;;;;5087162;28;20144;-72
2023/05/29 00:13:43;;;;;;;8.93;1.88;;;11.70;99.90;;;;;;5087964;28;20035;-73
2023/05/29 00:16:14;;;;;;;12.80;2.35;;;11.70;99.90;;;;;;5092081;28;20064;-73
2023/05/29 00:18:45;;;;;;;13.65;1.63;;;11.70;99.90;;;;;;5093949;28;20030;-71
2023/05/29 00:21:16;;;;;;;10.25;1.65;;;11.60;99.90;;;;;;5088051;28;20055;-72
2023/05/29 00:23:42;;;;;;;13.30;2.05;;;11.60;99.90;;;;;;5091533;28;20035;-72
2023/05/29 00:26:08;;;;;;;11.30;1.60;;;11.60;99.90;;;;;;5087761;28;20521;-73
2023/05/29 00:28:35;;;;;;;6.95;1.65;;;11.50;99.90;;;;;;5092765;28;20093;-71
2023/05/29 00:31:01;;;;;;;14.57;2.22;;;11.60;99.90;;;;;;5094089;28;20553;-72
2023/05/29 00:33:29;;;;;;;9.35;1.70;;;11.50;99.90;;;;;;5093938;28;20126;-71
2023/05/29 00:35:55;;;;;;;13.98;1.88;;;11.50;99.90;;;;;;5086912;28;20070;-71
2023/05/29 00:38:23;;;;;;;11.25;1.75;;;11.50;99.90;;;;;;5090768;28;20055;-71
2023/05/29 00:40:55;;;;;;;13.40;2.25;;;11.50;99.90;;;;;;5088605;28;20394;-72
2023/05/29 00:43:27;;;;;;;10.63;2.53;;;11.40;99.90;;;;;;5092457;28;20093;-71
2023/05/29 00:45:55;;;;;;;12.20;1.73;;;11.40;99.90;;;;;;5085512;28;20028;-72
2023/05/29 00:48:27;;;;;;;8.38;1.50;;;11.40;99.90;;;;;;5094917;27;20036;-73
2023/05/29 00:50:55;;;;;;;8.93;1.67;;;11.40;99.90;;;;;;5093042;28;20027;-71
2023/05/29 00:53:22;;;;;;;10.85;1.88;;;11.30;99.90;;;;;;5086842;28;20035;-71
2023/05/29 00:55:48;;;;;;;18.38;2.35;;;11.30;99.90;;;;;;5089247;28;20032;-71
2023/05/29 00:58:14;;;;;;;9.63;1.75;;;11.30;99.90;;;;;;5092595;28;20039;-73
2023/05/29 01:00:40;;;;;;;12.07;1.50;;;11.30;99.90;;;;;;5088456;28;20484;-71
2023/05/29 01:03:07;;;;;;;17.42;2.70;;;11.20;99.90;;;;;;5094018;28;20020;-71
2023/05/29 01:05:35;;;;;;;14.13;1.75;;;11.20;99.90;;;;;;5092615;28;20524;-71
2023/05/29 01:08:02;;;;;;;6.53;1.23;;;11.20;99.90;;;;;;5091815;28;20032;-71
2023/05/29 01:10:31;;;;;;;7.47;1.27;;;11.20;99.90;;;;;;5090756;28;20044;-71
2023/05/29 01:13:09;;;;;;;12.68;1.48;;;11.10;99.90;;;;;;5085809;28;20039;-71
2023/05/29 01:16:02;;;;;;;13.43;1.80;;;11.10;99.90;;;;;;5094833;28;20399;-73
2023/05/29 01:18:36;;;;;;;11.80;1.35;;;11.10;99.90;;;;;;5089971;28;20039;-71
2023/05/29 01:21:11;;;;;;;9.25;1.73;;;11.10;99.90;;;;;;5091943;28;20044;-71
2023/05/29 01:24:07;;;;;;;9.60;1.15;;;11.00;99.90;;;;;;5088780;28;20040;-72
2023/05/29 01:27:00;;;;;;;9.80;1.25;;;11.00;99.90;;;;;;5085459;28;20679;-70
2023/05/29 01:29:32;;;;;;;7.35;1.33;;;11.00;99.90;;;;;;5087810;28;20093;-71
2023/05/29 01:32:05;;;;;;;12.30;1.38;;;11.00;99.90;;;;;;5087678;28;20035;-72
2023/05/29 01:34:30;;;;;;;8.02;1.30;;;11.00;99.90;;;;;;5083774;28;20051;-71
2023/05/29 01:36:56;;;;;;;9.82;1.65;;;11.00;99.90;;;;;;5092800;28;20052;-72
2023/05/29 01:39:28;;;;;;;9.80;2.13;;;10.90;99.90;;;;;;5089280;28;20524;-72
2023/05/29 01:42:04;;;;;;;6.07;1.85;;;10.90;99.90;;;;;;5089070;28;20119;-71
2023/05/29 01:44:31;;;;;;;13.38;1.55;;;10.90;99.90;;;;;;5085636;28;20077;-71
2023/05/29 01:47:06;;;;;;;10.73;2.13;;;10.90;99.90;;;;;;5088893;28;20171;-71
2023/05/29 01:49:31;;;;;;;11.55;1.90;;;10.80;99.90;;;;;;5091286;28;20067;-71
2023/05/29 01:51:58;;;;;;;9.52;1.20;;;10.90;99.90;;;;;;5083826;28;20121;-71
2023/05/29 01:54:23;;;;;;;7.60;1.42;;;10.80;99.90;;;;;;5088880;28;20500;-73
2023/05/29 01:56:52;;;;;;;12.10;1.67;;;10.80;99.90;;;;;;5094997;28;20052;-72
2023/05/29 01:59:19;;;;;;;9.90;1.48;;;10.80;99.90;;;;;;5091115;28;20047;-72
2023/05/29 02:01:45;;;;;;;9.57;1.08;;;10.80;99.90;;;;;;5091685;28;20046;-73
2023/05/29 02:04:10;;;;;;;7.68;1.35;;;10.70;99.90;;;;;;5090755;28;20032;-72
2023/05/29 02:06:36;;;;;;;16.55;1.73;;;10.70;99.90;;;;;;5102890;28;20040;-71
2023/05/29 02:09:06;;;;;;;14.07;1.25;;;10.60;99.90;;;;;;5085861;28;20123;-71
2023/05/29 02:11:32;;;;;;;9.70;1.08;;;10.70;99.90;;;;;;5092267;28;20070;-71
2023/05/29 02:13:57;;;;;;;7.75;1.60;;;10.70;99.90;;;;;;5088039;28;20040;-71
2023/05/29 02:16:23;;;;;;;10.50;1.35;;;10.60;99.90;;;;;;5097214;28;20028;-72
2023/05/29 02:18:48;;;;;;;6.70;1.08;;;10.60;99.90;;;;;;5091152;28;20035;-72
2023/05/29 02:21:14;;;;;;;16.33;2.13;;;10.60;99.90;;;;;;5092705;28;20044;-73
2023/05/29 02:23:40;;;;;;;14.73;2.95;;;10.50;99.90;;;;;;5094593;28;20027;-71
2023/05/29 02:26:08;;;;;;;15.93;1.88;;;10.50;99.90;;;;;;5092386;28;20036;-72
2023/05/29 02:28:40;;;;;;;9.63;1.98;;;10.50;99.90;;;;;;5093217;28;20035;-72
2023/05/29 02:31:06;;;;;;;11.63;1.50;;;10.50;99.90;;;;;;5087398;28;20057;-70
2023/05/29 02:33:34;;;;;;;10.40;1.30;;;10.50;99.90;;;;;;5084455;28;20046;-71
2023/05/29 02:36:00;;;;;;;11.43;1.58;;;10.50;99.90;;;;;;5091970;28;20043;-71
2023/05/29 02:38:25;;;;;;;10.43;1.20;;;10.40;99.90;;;;;;5083538;28;20400;-71
2023/05/29 02:40:51;;;;;;;10.63;1.95;;;10.40;99.90;;;;;;5093882;28;20106;-71
2023/05/29 02:43:23;;;;;;;14.85;2.42;;;10.40;99.90;;;;;;5099403;28;20024;-71
2023/05/29 02:45:48;;;;;;;10.30;1.98;;;10.40;99.90;;;;;;5089627;28;20090;-72
2023/05/29 02:48:17;;;;;;;9.00;1.60;;;10.40;99.90;;;;;;5096736;27;20456;-71
2023/05/29 02:50:45;;;;;;;16.38;1.83;;;10.40;99.90;;;;;;5098982;28;20111;-71
2023/05/29 02:53:14;;;;;;;10.73;2.25;;;10.40;99.90;;;;;;5092297;28;20056;-71
2023/05/29 02:55:42;;;;;;;14.68;1.73;;;10.40;99.90;;;;;;5089036;28;20040;-71
2023/05/29 02:58:08;;;;;;;6.63;0.93;;;10.40;99.90;;;;;;5082970;28;20047;-72
2023/05/29 03:00:37;;;;;;;14.25;1.77;;;10.30;99.90;;;;;;5099579;28;20040;-71
2023/05/29 03:03:03;;;;;;;9.48;1.05;;;10.30;99.90;;;;;;5096194;28;20038;-71
2023/05/29 03:05:28;;;;;;;13.80;1.98;;;10.30;99.90;;;;;;5099901;28;20115;-70
2023/05/29 03:07:57;;;;;;;11.25;1.88;;;10.30;99.90;;;;;;5095495;28;20462;-72
2023/05/29 03:10:28;;;;;;;11.73;1.90;;;10.30;99.90;;;;;;5089967;28;20118;-71
2023/05/29 03:12:57;;;;;;;10.68;1.33;;;10.20;99.90;;;;;;5088166;28;20032;-71
2023/05/29 03:15:28;;;;;;;8.50;2.50;;;10.20;99.90;;;;;;5087867;28;20036;-71
2023/05/29 03:17:54;;;;;;;9.27;1.33;;;10.20;99.90;;;;;;5087846;28;20039;-71
2023/05/29 03:20:26;;;;;;;13.82;1.50;;;10.20;99.90;;;;;;5087651;28;20036;-71
2023/05/29 03:22:51;;;;;;;10.13;1.25;;;10.20;99.90;;;;;;5086366;28;20115;-71
2023/05/29 03:25:18;;;;;;;14.27;2.00;;;10.20;99.90;;;;;;5090505;28;20453;-71
2023/05/29 03:27:43;;;;;;;7.78;1.23;;;10.10;99.90;;;;;;5088443;28;20028;-72
2023/05/29 03:30:09;;;;;;;12.55;1.35;;;10.20;99.90;;;;;;5094169;28;20042;-71
2023/05/29 03:32:35;;;;;;;12.88;1.75;;;10.10;99.90;;;;;;5090466;28;20031;-71
2023/05/29 03:35:01;;;;;;;6.90;0.93;;;10.10;99.90;;;;;;5088634;28;20050;-71
2023/05/29 03:37:26;;;;;;;6.70;1.08;;;10.10;99.90;;;;;;5090388;28;20036;-71
2023/05/29 03:39:58;;;;;;;5.32;0.80;;;10.10;99.90;;;;;;5095899;28;20043;-71
2023/05/29 03:42:30;;;;;;;21.83;1.63;;;10.10;99.90;;;;;;5094414;28;20416;-71
2023/05/29 03:44:59;;;;;;;11.25;1.23;;;10.10;99.90;;;;;;5087860;28;20032;-73
2023/05/29 03:47:25;;;;;;;12.05;1.63;;;10.10;99.90;;;;;;5093114;28;20051;-71
2023/05/29 03:49:51;;;;;;;13.80;1.52;;;10.10;99.90;;;;;;5089893;28;20425;-71
2023/05/29 03:52:26;;;;;;;7.88;1.27;;;10.10;99.90;;;;;;5091904;28;20028;-70
2023/05/29 03:54:51;;;;;;;18.90;2.22;;;10.10;99.90;;;;;;5094736;28;20024;-71
2023/05/29 03:57:23;;;;;;;6.18;1.20;;;10.10;99.90;;;;;;5091422;27;20503;-71
2023/05/29 03:59:48;;;;;;;14.77;2.33;;;10.10;99.90;;;;;;5091284;28;20655;-71
2023/05/29 04:02:17;;;;;;;4.65;0.90;;;10.10;99.90;;;;;;5095282;28;20115;-71
2023/05/29 04:04:49;;;;;;;13.18;1.50;;;10.00;99.90;;;;;;5100059;28;20032;-72
2023/05/29 04:07:14;;;;;;;17.42;1.80;;;10.10;99.90;;;;;;5086312;28;20028;-70
2023/05/29 04:09:40;;;;;;;12.63;1.48;;;10.10;99.90;;;;;;5088923;28;20138;-71
2023/05/29 04:12:06;;;;;;;7.78;1.67;;;10.10;99.90;;;;;;5088551;28;20107;-72
2023/05/29 04:14:31;;;;;;;7.85;1.17;;;10.10;99.90;;;;;;5087376;28;20035;-71
2023/05/29 04:17:00;;;;;;;8.88;1.25;;;10.10;99.90;;;;;;5087670;28;20031;-72
2023/05/29 04:19:31;;;;;;;8.48;1.50;;;10.20;99.90;;;;;;5090401;28;20084;-71
2023/05/29 04:22:00;;;;;;;16.02;1.33;;;10.20;99.90;;;;;;5095624;28;20060;-71
2023/05/29 04:24:25;;;;;;;14.15;2.50;;;10.20;99.90;;;;;;5087369;28;20032;-69
2023/05/29 04:26:52;;;;;;;10.10;1.42;;;10.20;99.90;;;;;;5090364;28;20381;-72
2023/05/29 04:29:20;;;;;;;9.50;1.52;;;10.20;99.90;;;;;;5086991;28;20036;-71
2023/05/29 04:31:47;;;;;;;12.95;2.03;;;10.20;99.90;;;;;;5090687;28;20038;-71
2023/05/29 04:34:16;;;;;;;11.60;1.80;;;10.20;99.90;;;;;;5088691;28;20024;-73
2023/05/29 04:36:43;;;;;;;13.63;1.27;;;10.30;99.90;;;;;;5088684;27;20043;-71
2023/05/29 04:39:09;;;;;;;9.85;1.00;;;10.30;99.90;;;;;;5089900;28;20093;-71
2023/05/29 04:41:35;;;;;;;11.20;1.50;;;10.30;99.90;;;;;;5091587;28;20504;-71
2023/05/29 04:44:01;;;;;;;14.35;2.28;;;10.30;99.90;;;;;;5094866;27;20118;-71
2023/05/29 04:46:27;;;;;;;11.73;1.30;;;10.40;99.90;;;;;;5088013;28;20027;-71
2023/05/29 04:48:52;;;;;;;8.20;1.20;;;10.40;99.90;;;;;;5091780;28;20036;-73
2023/05/29 04:51:21;;;;;;;9.07;1.55;;;10.40;99.90;;;;;;5090910;28;20032;-71
2023/05/29 04:53:51;;;;;;;9.23;1.52;;;10.50;99.90;;;;;;5091375;28;20093;-71
2023/05/29 04:56:20;;;;;;;14.73;3.08;;;10.50;99.90;;;;;;5092074;28;20093;-71
2023/05/29 04:58:49;;;;;;;9.00;2.03;;;10.60;99.90;;;;;;5098123;28;20114;-71
2023/05/29 05:01:14;;;;;;;7.47;1.50;;;10.50;99.90;;;;;;5095362;28;20093;-71
2023/05/29 05:03:41;;;;;;;12.05;1.70;;;10.60;99.90;;;;;;5097470;28;20043;-70
2023/05/29 05:06:07;;;;;;;11.18;1.17;;;10.60;99.90;;;;;;5092274;28;20088;-71
2023/05/29 05:08:38;;;;;;;5.45;1.00;;;10.70;99.90;;;;;;5089746;28;20046;-71
2023/05/29 05:11:07;;;;;;;9.07;1.25;;;10.80;99.90;;;;;;5091645;28;20032;-71
2023/05/29 05:13:33;;;;;;;12.70;1.25;;;10.90;99.90;;;;;;5086602;28;20067;-71
2023/05/29 05:16:01;;;;;;;13.20;1.40;;;10.90;99.90;;;;;;5087911;28;20503;-72
2023/05/29 05:18:30;;;;;;;6.38;1.05;;;10.90;99.90;;;;;;5087895;27;20093;-71
2023/05/29 05:20:58;;;;;;;9.10;1.95;;;11.00;99.90;;;;;;5091890;28;20051;-75
2023/05/29 05:23:24;;;;;;;7.47;0.93;;;11.00;99.90;;;;;;5093665;27;20067;-71
2023/05/29 05:25:50;;;;;;;8.75;0.95;;;11.10;99.90;;;;;;5086991;28;20039;-72
2023/05/29 05:28:18;;;;;;;11.63;1.33;;;11.20;99.90;;;;;;5090027;28;20070;-71
2023/05/29 05:30:44;;;;;;;16.25;2.13;;;11.20;99.90;;;;;;5091211;28;20118;-71
2023/05/29 05:33:10;;;;;;;5.10;1.20;;;11.40;99.90;;;;;;5092767;28;20477;-71
2023/05/29 05:35:35;;;;;;;11.07;1.80;;;11.50;99.90;;;;;;5091267;28;20040;-71
2023/05/29 05:38:01;;;;;;;14.18;2.30;;;11.70;99.90;;;;;;5087708;28;20035;-71
2023/05/29 05:40:26;;;;;;;11.95;1.88;;;11.90;99.90;;;;;;5092928;28;20097;-71
2023/05/29 05:42:52;;;;;;;7.43;1.75;;;12.10;99.90;;;;;;5086440;28;20036;-72
2023/05/29 05:45:20;;;;;;;7.70;1.10;;;12.40;99.90;;;;;;5092159;28;20147;-71
2023/05/29 05:47:46;;;;;;;9.18;1.60;;;12.90;99.90;;;;;;5091999;28;20040;-71
2023/05/29 05:50:15;;;;;;;6.60;1.00;;;13.30;99.90;;;;;;5094584;28;20123;-71
2023/05/29 05:52:41;;;;;;;13.40;1.35;;;13.70;99.90;;;;;;5094027;28;20046;-71
2023/05/29 05:55:07;;;;;;;15.10;1.48;;;14.00;99.90;;;;;;5090203;28;20032;-71
2023/05/29 05:57:33;;;;;;;9.40;1.52;;;14.10;99.90;;;;;;5086637;28;20058;-70
2023/05/29 06:00:08;;;;;;;5.18;1.08;;;14.30;99.90;;;;;;5093088;28;20039;-70
2023/05/29 06:02:34;;;;;;;8.77;1.20;;;14.50;99.90;;;;;;5087698;28;20032;-71
2023/05/29 06:04:59;;;;;;;8.15;1.08;;;14.70;99.90;;;;;;5088547;28;20449;-71
2023/05/29 06:07:25;;;;;;;18.05;1.90;;;15.00;99.90;;;;;;5088481;28;20032;-70
2023/05/29 06:09:51;;;;;;;12.82;1.08;;;15.30;99.90;;;;;;5093854;28;20091;-73
2023/05/29 06:12:17;;;;;;;11.13;1.63;;;15.50;99.20;;;;;;5094621;28;20140;-72
2023/05/29 06:14:45;;;;;;;8.48;1.15;;;15.90;99.30;;;;;;5089030;28;20065;-72
2023/05/29 06:17:10;;;;;;;8.27;1.85;;;16.00;98.00;;;;;;5088857;28;20431;-70
2023/05/29 06:19:36;;;;;;;7.18;1.13;;;16.20;97.20;;;;;;5098060;28;20043;-72
2023/05/29 06:22:02;;;;;;;8.20;1.13;;;16.50;97.30;;;;;;5089590;28;20483;-71
2023/05/29 06:24:27;;;;;;;7.45;1.17;;;16.80;97.00;;;;;;5095857;28;20221;-71
2023/05/29 06:26:56;;;;;;;10.15;0.93;;;17.40;96.80;;;;;;5092767;28;20085;-71
2023/05/29 06:29:21;;;;;;;5.10;1.30;;;17.90;94.70;;;;;;5097848;27;20031;-71
2023/05/29 06:31:47;;;;;;;5.50;1.17;;;18.70;94.00;;;;;;5095063;28;20044;-73
2023/05/29 06:34:12;;;;;;;4.88;1.00;;;19.00;93.10;;;;;;5091926;28;20051;-72
2023/05/29 06:36:38;;;;;;;5.45;1.30;;;19.20;93.30;;;;;;5092772;27;20392;-71
2023/05/29 06:39:04;;;;;;;6.15;1.15;;;19.60;92.10;;;;;;5091982;28;20648;-71
2023/05/29 06:41:30;;;;;;;6.32;1.52;;;19.90;91.40;;;;;;5094057;28;20047;-71
2023/05/29 06:43:55;;;;;;;14.27;1.95;;;20.00;91.40;;;;;;5095498;28;20047;-71
2023/05/29 06:46:30;;;;;;;7.75;1.20;;;20.20;91.30;;;;;;5097250;28;20040;-70
2023/05/29 06:48:56;;;;;;;4.78;1.75;;;20.60;90.50;;;;;;5086855;28;20176;-73
2023/05/29 06:51:24;;;;;;;6.38;1.35;;;20.70;89.80;;;;;;5093541;28;20455;-73
2023/05/29 06:53:53;;;;;;;6.00;1.52;;;20.90;90.60;;;;;;5096902;28;20032;-71
2023/05/29 06:56:18;;;;;;;9.27;1.10;;;21.00;89.40;;;;;;5095576;28;20753;-72
2023/05/29 06:58:45;;;;;;;7.95;1.80;;;21.20;89.40;;;;;;5097981;28;20032;-72
2023/05/29 07:01:11;;;;;;;15.80;2.17;;;21.50;87.70;;;;;;5108687;28;20040;-73
2023/05/29 07:03:36;;;;;;;8.00;1.65;;;22.00;87.80;;;;;;5093185;28;20694;-72
2023/05/29 07:06:02;;;;;;;5.57;1.40;;;22.30;87.30;;;;;;5091783;28;20035;-71
2023/05/29 07:08:28;;;;;;;7.55;1.83;;;22.60;85.80;;;;;;5090740;28;20044;-71
2023/05/29 07:10:55;;;;;;;5.72;1.42;;;22.90;86.00;;;;;;5094635;28;20169;-72
2023/05/29 07:13:20;;;;;;;7.65;1.80;;;22.80;85.90;;;;;;5091561;28;20031;-72
2023/05/29 07:15:47;;;;;;;9.73;1.63;;;22.60;83.70;;;;;;5090272;28;20468;-72
2023/05/29 07:18:13;;;;;;;13.15;1.90;;;22.60;84.70;;;;;;5093212;27;20044;-72
2023/05/29 07:20:38;;;;;;;9.13;1.95;;;22.90;83.40;;;;;;5094570;27;20043;-72
2023/05/29 07:23:04;;;;;;;6.47;1.48;;;22.60;82.80;;;;;;5091451;28;20036;-71
2023/05/29 07:25:30;;;;;;;11.52;1.40;;;22.80;83.00;;;;;;5094484;28;20147;-71
2023/05/29 07:27:56;;;;;;;5.47;1.40;;;22.90;82.20;;;;;;5093616;27;20593;-71
2023/05/29 07:30:22;;;;;;;6.88;1.48;;;23.00;81.90;;;;;;5092113;28;20040;-71
2023/05/29 07:32:47;;;;;;;8.57;2.28;;;23.20;82.10;;;;;;5091746;28;20404;-71
2023/05/29 07:35:13;;;;;;;9.75;2.15;;;23.30;81.70;;;;;;5086821;28;20180;-71
2023/05/29 07:37:38;;;;;;;7.32;1.67;;;23.70;81.20;;;;;;5088350;28;20036;-72
2023/05/29 07:40:07;;;;;;;6.00;1.42;;;23.50;80.50;;;;;;5088215;28;20499;-71
2023/05/29 07:42:33;;;;;;;8.40;2.00;;;23.30;80.00;;;;;;5092078;28;20036;-71
2023/05/29 07:45:00;;;;;;;8.02;2.15;;;23.40;80.90;;;;;;5086490;28;20431;-71
2023/05/29 07:47:25;;;;;;;15.05;2.40;;;23.50;80.30;;;;;;5087394;28;20024;-72
2023/05/29 07:49:51;;;;;;;7.10;1.83;;;23.20;80.40;;;;;;5089576;28;20031;-72
2023/05/29 07:52:17;;;;;;;5.68;1.65;;;22.80;80.30;;;;;;5088398;28;20028;-71
2023/05/29 07:54:43;;;;;;;4.15;1.40;;;22.90;81.00;;;;;;5089792;28;20104;-71
2023/05/29 07:57:09;;;;;;;9.65;1.33;;;22.90;80.30;;;;;;5103116;28;20039;-72
2023/05/29 07:59:41;;;;;;;9.40;1.45;;;22.60;79.60;;;;;;5099549;28;20048;-71
2023/05/29 08:02:07;;;;;;;4.93;1.38;;;22.00;81.60;;;;;;5087952;28;20036;-70
2023/05/29 08:04:32;;;;;;;5.30;1.15;;;21.80;82.30;;;;;;5086448;28;20127;-70
2023/05/29 08:07:03;;;;;;;5.63;1.30;;;21.40;81.60;;;;;;5085921;28;20193;-70
2023/05/29 08:09:29;;;;;;;5.57;1.48;;;20.80;83.60;;;;;;5087665;28;20496;-70
2023/05/29 08:11:54;;;;;;;6.32;1.80;;;20.50;84.70;;;;;;5085811;28;20031;-71
2023/05/29 08:14:20;;;;;;;5.15;1.02;;;20.20;85.10;;;;;;5090179;28;20100;-71
2023/05/29 08:16:45;;;;;;;8.60;1.00;;;20.00;85.20;;;;;;5087684;28;20100;-72
2023/05/29 08:19:14;;;;;;;7.80;0.90;;;19.90;85.30;;;;;;5084895;28;20177;-71
2023/05/29 08:21:43;;;;;;;3.75;0.82;;;19.50;86.40;;;;;;5084254;28;20062;-71
2023/05/29 08:24:08;;;;;;;6.43;1.08;;;19.20;86.70;;;;;;5086794;28;20044;-72
2023/05/29 08:26:34;;;;;;;12.15;0.95;;;18.90;87.90;;;;;;5084587;28;20051;-72
2023/05/29 08:29:00;;;;;;;7.22;0.88;;;18.80;89.30;;;;;;5084488;28;20031;-70
2023/05/29 08:31:26;;;;;;;5.28;1.67;;;18.80;88.00;;;;;;5084596;28;20507;-71
2023/05/29 08:34:01;;;;;;;3.13;0.70;;;18.70;88.20;;;;;;5087167;28;20020;-71
2023/05/29 08:36:29;;;;;;;6.70;0.77;;;18.70;88.80;;;;;;5090191;28;20028;-70
2023/05/29 08:38:58;;;;;;;5.28;1.10;;;18.50;89.30;;;;;;5095918;28;20061;-71
2023/05/29 08:41:55;;;;;;;7.00;1.40;;;18.50;88.40;;;;;;5086863;28;20035;-72
2023/05/29 08:44:23;;;;;;;7.10;1.00;;;18.40;89.10;;;;;;5090908;28;20040;-72
2023/05/29 08:46:55;;;;;;;4.18;0.70;;;18.50;88.70;;;;;;5083934;28;20055;-70
2023/05/29 08:49:24;;;;;;;5.82;0.95;;;18.60;88.30;;;;;;5092154;28;20075;-71
2023/05/29 08:52:09;;;;;;;7.50;0.98;;;18.50;88.30;;;;;;5098009;28;20035;-71
2023/05/29 08:54:35;;;;;;;14.15;1.63;;;18.60;88.60;;;;;;5090706;28;20044;-70
2023/05/29 08:57:03;;;;;;;7.20;0.95;;;18.40;88.00;;;;;;5091925;28;20027;-71
2023/05/29 08:59:33;;;;;;;16.67;1.38;;;18.50;89.00;;;;;;5087806;28;20515;-71
2023/05/29 09:02:05;;;;;;;6.45;1.42;;;18.50;88.80;;;;;;5088421;28;20054;-70
2023/05/29 09:04:37;;;;;;;3.25;0.60;;;18.30;88.40;;;;;;5088528;28;20034;-70
2023/05/29 09:07:09;;;;;;;7.47;1.67;;;18.30;89.00;;;;;;5092710;28;20036;-71
2023/05/29 09:09:37;;;;;;;6.15;1.13;;;18.30;89.30;;;;;;5086189;28;20058;-70
2023/05/29 09:12:07;;;;;;;8.05;0.95;;;18.30;88.40;;;;;;5089510;28;20103;-70
2023/05/29 09:14:34;;;;;;;8.98;1.70;;;18.40;89.10;;;;;;5093091;28;20408;-71
2023/05/29 09:17:06;;;;;;;6.40;0.82;;;18.40;88.60;;;;;;5091307;28;20043;-70
2023/05/29 09:19:33;;;;;;;7.50;1.30;;;18.60;89.20;;;;;;5091294;28;20036;-71
2023/05/29 09:22:23;;;;;;;4.95;0.70;;;18.50;89.60;;;;;;5093763;28;20039;-69
2023/05/29 09:24:50;;;;;;;6.03;0.80;;;18.70;89.30;;;;;;5086796;28;20043;-72
2023/05/29 09:27:17;;;;;;;6.38;0.80;;;18.80;88.60;;;;;;5089056;28;20027;-71
2023/05/29 09:29:44;;;;;;;3.75;0.75;;;18.90;89.90;;;;;;5095200;28;20040;-70
2023/05/29 09:32:12;;;;;;;6.07;0.70;;;19.10;90.10;;;;;;5089577;28;20816;-70
2023/05/29 09:34:41;;;;;;;3.63;0.90;;;19.10;89.50;;;;;;5086305;28;20040;-74
2023/05/29 09:37:12;;;;;;;9.35;1.48;;;19.00;89.60;;;;;;5089359;28;20040;-70
2023/05/29 09:39:47;;;;;;;;;;;19.00;88.90;;;;;;5095001;28;20043;-71
2023/05/29 09:42:16;;;;;;;6.53;0.93;;;18.90;89.50;;;;;;5089367;28;20320;-71
2023/05/29 09:44:43;;;;;;;6.22;0.93;;;19.00;88.80;;;;;;5090603;28;20028;-70
2023/05/29 09:47:09;;;;;;;3.10;0.63;;;18.90;89.70;;;;;;5092456;28;20039;-70
2023/05/29 09:49:41;;;;;;;5.85;0.90;;;18.70;89.40;;;;;;5093950;28;20066;-70
2023/05/29 09:52:16;;;;;;;4.60;0.90;;;18.70;88.30;;;;;;5093663;28;20036;-70
2023/05/29 09:54:45;;;;;;;7.30;1.20;;;18.70;88.90;;;;;;5096403;28;20028;-72
2023/05/29 09:57:16;;;;;;;4.28;1.38;;;18.70;89.00;;;;;;5098962;27;20039;-71
2023/05/29 09:59:46;;;;;;;6.60;0.80;;;18.70;89.60;;;;;;5092152;28;20052;-72
2023/05/29 10:02:13;;;;;;;;;;;18.70;89.20;;;;;;5097351;28;20581;-70
2023/05/29 10:04:43;;;;;;;10.13;0.90;;;18.80;90.10;;;;;;5099538;28;19919;-71
2023/05/29 10:07:31;;;;;;;9.48;1.48;;;18.80;89.20;;;;;;5089877;28;20036;-70
2023/05/29 10:10:05;;;;;;;4.15;1.00;;;18.70;90.30;;;;;;5092385;28;20044;-73
2023/05/29 10:12:47;;;;;;;4.53;1.02;;;18.70;90.30;;;;;;5097564;28;20054;-71
2023/05/29 10:15:14;;;;;;;5.35;1.27;;;19.00;90.30;;;;;;5094316;28;20073;-69
2023/05/29 10:18:02;;;;;;;4.80;0.98;;;19.10;89.20;;;;;;5096732;28;20099;-70
2023/05/29 10:20:35;;;;;;;4.40;0.80;;;18.90;89.50;;;;;;5091863;28;20142;-72
2023/05/29 10:23:11;;;;;;;7.50;0.65;;;19.00;88.80;;;;;;5094532;28;20050;-71
2023/05/29 10:25:43;;;;;;;4.90;1.17;;;19.10;88.40;;;;;;5098932;28;20036;-71
2023/05/29 10:28:10;;;;;;;5.28;0.98;;;19.10;89.60;;;;;;5096102;28;20032;-71
2023/05/29 10:30:51;;;;;;;4.10;0.75;;;19.20;88.00;;;;;;5089417;28;20038;-71
2023/05/29 10:33:28;;;;;;;5.72;0.82;;;19.20;88.40;;;;;;5091474;28;20032;-72
2023/05/29 10:36:14;;;;;;;4.63;0.80;;;19.10;89.50;;;;;;5087413;28;20126;-70
2023/05/29 10:38:46;;;;;;;5.72;1.17;;;19.20;88.20;;;;;;5096816;28;20047;-70
2023/05/29 10:41:26;;;;;;;5.85;0.88;;;19.20;88.30;;;;;;5089487;28;20095;-72
2023/05/29 10:44:24;;;;;;;4.78;1.00;;;19.10;87.40;;;;;;5095128;27;20032;-71
2023/05/29 10:46:50;;;;;;;8.50;1.73;;;19.10;89.60;;;;;;5093738;27;20046;-71
2023/05/29 10:49:22;;;;;;;7.97;1.05;;;19.00;87.80;;;;;;5096173;28;20032;-71
2023/05/29 10:51:48;;;;;;;4.50;1.05;;;19.10;87.80;;;;;;5091371;28;20094;-69
2023/05/29 10:54:21;;;;;;;7.53;1.05;;;19.10;87.90;;;;;;5095433;28;20142;-71
2023/05/29 10:57:00;;;;;;;5.60;0.73;;;19.10;87.00;;;;;;5096376;27;20044;-71
2023/05/29 10:59:34;;;;;;;4.93;1.00;;;19.20;87.60;;;;;;5094704;28;20028;-70
2023/05/29 11:02:00;;;;;;;8.75;1.90;;;19.40;88.30;;;;;;5092980;28;20036;-71
2023/05/29 11:04:33;;;;;;;11.25;1.17;;;19.70;88.20;;;;;;5091690;28;20479;-69
2023/05/29 11:07:08;;;;;;;6.05;1.48;;;19.80;86.40;;;;;;5095743;28;20519;-70
2023/05/29 11:09:40;;;;;;;4.82;1.10;;;19.80;87.30;;;;;;5089360;28;20039;-72
2023/05/29 11:12:35;;;;;;;6.80;1.10;;;19.90;87.30;;;;;;5097685;28;20057;-71
2023/05/29 11:15:06;;;;;;;15.43;1.15;;;19.80;87.30;;;;;;5095805;28;20031;-71
2023/05/29 11:17:46;;;;;;;9.52;1.10;;;19.80;86.30;;;;;;5095164;28;20492;-72
2023/05/29 11:20:48;;;;;;;9.82;1.77;;;19.70;87.20;;;;;;5090424;28;20039;-71
2023/05/29 11:23:17;;;;;;;7.82;1.90;;;19.60;87.70;;;;;;5091054;28;20031;-71
2023/05/29 11:25:44;;;;;;;13.60;1.60;;;19.50;89.90;;;;;;5099091;28;20054;-71
2023/05/29 11:28:11;;;;;;;6.68;1.08;;;19.50;90.30;;;;;;5090443;28;20502;-70
2023/05/29 11:30:44;;;;;;;6.22;1.20;;;19.50;90.30;;;;;;5095104;28;20032;-72
2023/05/29 11:33:32;;;;;;;7.60;2.00;;;19.50;90.80;;;;;;5092283;28;20029;-71
2023/05/29 11:36:01;;;;;;;8.07;1.38;;;19.50;90.90;;;;;;5094969;28;20058;-70
2023/05/29 11:38:28;;;;;;;7.18;1.30;;;19.50;90.40;;;;;;5086188;28;20118;-70
2023/05/29 11:41:01;;;;;;;9.95;1.88;;;19.40;90.70;;;;;;5104193;27;20072;-70
2023/05/29 11:43:27;;;;;;;4.30;1.10;;;19.50;90.80;;;;;;5094287;28;20051;-70
2023/05/29 11:45:59;;;;;;;7.22;1.23;;;19.50;89.90;;;;;;5098012;28;20055;-71
2023/05/29 11:48:27;;;;;;;4.97;1.60;;;19.50;89.70;;;;;;5094632;28;20028;-70
2023/05/29 11:51:12;;;;;;;13.60;1.20;;;19.50;90.20;;;;;;5090452;28;20039;-71
2023/05/29 11:53:42;;;;;;;12.68;1.80;;;19.60;89.90;;;;;;5093451;28;20032;-71
2023/05/29 11:56:08;;;;;;;;;;;19.40;90.10;;;;;;5083931;28;20354;-71
2023/05/29 11:58:34;;;;;;;6.30;1.33;;;19.30;90.50;;;;;;5092455;28;19912;-70
2023/05/29 12:01:00;;;;;;;8.10;1.55;;;19.30;90.50;;;;;;5089327;28;20100;-71
2023/05/29 12:03:28;;;;;;;13.50;2.08;;;19.20;90.60;;;;;;5086901;27;20032;-70
2023/05/29 12:06:07;;;;;;;8.32;1.35;;;19.20;90.20;;;;;;5094775;28;20051;-72
2023/05/29 12:08:35;;;;;;;7.00;1.27;;;19.20;90.80;;;;;;5085515;28;20123;-71
2023/05/29 12:11:04;;;;;;;7.30;1.25;;;19.30;90.60;;;;;;5092057;28;20112;-71
2023/05/29 12:13:33;;;;;;;10.10;1.65;;;19.50;90.60;;;;;;5089641;27;20074;-70
2023/05/29 12:16:05;;;;;;;7.45;1.35;;;19.50;90.10;;;;;;5086343;28;20460;-71
2023/05/29 12:18:30;;;;;;;13.50;1.60;;;19.30;90.30;;;;;;5088381;28;20031;-71
2023/05/29 12:21:05;;;;;;;6.53;1.10;;;19.40;90.60;;;;;;5086521;28;20044;-70
2023/05/29 12:23:31;;;;;;;11.73;1.33;;;19.50;90.40;;;;;;5084943;28;20776;-71
2023/05/29 12:25:58;;;;;;;12.65;1.52;;;19.40;90.40;;;;;;5085145;28;20024;-71
2023/05/29 12:28:26;;;;;;;18.63;2.00;;;19.50;90.00;;;;;;5086909;28;20032;-72
2023/05/29 12:31:01;;;;;;;6.28;1.23;;;19.40;89.40;;;;;;5090103;27;20040;-71
2023/05/29 12:33:31;;;;;;;6.28;1.30;;;19.50;90.30;;;;;;5093397;28;20119;-70
2023/05/29 12:36:09;;;;;;;8.13;1.35;;;19.40;91.00;;;;;;5085699;28;20071;-71
2023/05/29 12:38:52;;;;;;;11.10;1.38;;;19.40;91.00;;;;;;5091819;28;20032;-71
2023/05/29 12:41:28;;;;;;;3.85;1.40;;;19.30;91.10;;;;;;5089677;28;20035;-70
2023/05/29 12:43:56;;;;;;;10.75;1.60;;;19.20;91.10;;;;;;5095879;28;20039;-70
2023/05/29 12:46:25;;;;;;;15.98;2.17;;;19.10;91.10;;;;;;5088192;28;20070;-70
2023/05/29 12:48:56;;;;;;;10.57;1.65;;;19.10;90.90;;;;;;5087704;28;20032;-71
2023/05/29 12:51:26;;;;;;;8.02;1.35;;;19.00;91.40;;;;;;5084588;28;20024;-72
2023/05/29 12:53:58;;;;;;;8.55;1.45;;;19.00;91.20;;;;;;5085531;28;20032;-71